Time;durP1;ratioP1;P1;durP2;ratioP2;P2;SDS_P1;SDS_P2;PMS_P1;PMS_P2;Temp;Humidity;BMP_temperature;BMP_pressure;BME280_temperature;BME280_humidity;BME280_pressure;Samples;Min_cycle;Max_cycle;Signal;HPM_P1;HPM_P2
2021/09/01 00:02:01;;;;;;;4.95;1.98;;;;;22.80;102673.00;;;;5008202;28;20201;-78
2021/09/01 00:04:29;;;;;;;4.72;1.40;;;;;22.80;102680.00;;;;5008480;28;20674;-76
2021/09/01 00:06:57;;;;;;;4.82;1.88;;;;;22.80;102673.00;;;;5007854;28;20205;-78
2021/09/01 00:09:24;;;;;;;4.68;1.65;;;;;22.80;102678.00;;;;5007294;28;20189;-79
2021/09/01 00:11:51;;;;;;;6.88;1.65;;;;;22.80;102682.00;;;;5008066;28;20201;-78
2021/09/01 00:14:19;;;;;;;4.75;1.65;;;;;22.80;102675.00;;;;5008445;28;21077;-76
2021/09/01 00:16:46;;;;;;;9.85;2.70;;;;;22.80;102679.00;;;;5007657;28;20203;-77
2021/09/01 00:19:13;;;;;;;5.78;1.70;;;;;22.80;102687.00;;;;5007366;28;20229;-77
2021/09/01 00:21:42;;;;;;;3.53;1.42;;;;;22.80;102687.00;;;;5007741;28;20604;-79
2021/09/01 00:24:09;;;;;;;6.38;1.65;;;;;22.80;102688.00;;;;5010310;28;20204;-78
2021/09/01 00:26:37;;;;;;;5.10;2.03;;;;;22.80;102685.00;;;;5010369;28;20212;-78
2021/09/01 00:29:05;;;;;;;6.75;1.90;;;;;22.80;102685.00;;;;5011345;28;20200;-78
2021/09/01 00:31:32;;;;;;;4.32;1.63;;;;;22.80;102688.00;;;;5011166;28;20724;-78
2021/09/01 00:33:59;;;;;;;6.03;1.65;;;;;22.80;102683.00;;;;5012042;28;20200;-79
2021/09/01 00:36:26;;;;;;;5.93;1.77;;;;;22.80;102684.00;;;;5011867;28;20200;-78
2021/09/01 00:38:55;;;;;;;6.40;2.22;;;;;22.80;102686.00;;;;5011616;28;20208;-78
2021/09/01 00:41:24;;;;;;;4.40;1.35;;;;;22.80;102684.00;;;;5011928;28;20200;-78
2021/09/01 00:43:53;;;;;;;3.78;2.05;;;;;22.80;102681.00;;;;5010849;28;20198;-78
2021/09/01 00:46:20;;;;;;;4.95;1.88;;;;;22.80;102679.00;;;;4992212;28;21099;-79
2021/09/01 00:48:48;;;;;;;10.45;2.38;;;;;22.80;102683.00;;;;4992375;28;20197;-78
2021/09/01 00:51:16;;;;;;;5.57;1.75;;;;;22.80;102691.00;;;;5011954;28;20248;-78
2021/09/01 00:53:46;;;;;;;3.75;1.42;;;;;22.80;102681.00;;;;5010680;28;20212;-76
2021/09/01 00:56:18;;;;;;;4.10;1.63;;;;;22.70;102681.00;;;;4994653;28;20989;-78
2021/09/01 00:58:46;;;;;;;3.90;1.38;;;;;22.70;102684.00;;;;5011137;28;20259;-77
2021/09/01 01:01:17;;;;;;;4.15;1.90;;;;;22.70;102682.00;;;;5011485;28;20211;-77
2021/09/01 01:03:47;;;;;;;4.03;1.58;;;;;22.70;102679.00;;;;5011113;28;20401;-77
2021/09/01 01:06:15;;;;;;;5.25;1.98;;;;;22.70;102678.00;;;;5011202;28;20193;-77
2021/09/01 01:08:42;;;;;;;3.88;1.65;;;;;22.70;102678.00;;;;5010091;28;20200;-76
2021/09/01 01:11:13;;;;;;;5.18;1.30;;;;;22.70;102683.00;;;;5010788;28;20225;-75
2021/09/01 01:13:42;;;;;;;6.18;1.55;;;;;22.70;102677.00;;;;5009953;28;20229;-79
2021/09/01 01:16:10;;;;;;;7.47;2.38;;;;;22.70;102683.00;;;;5011535;28;20201;-76
2021/09/01 01:18:38;;;;;;;4.40;1.67;;;;;22.70;102688.00;;;;5010153;28;20721;-79
2021/09/01 01:21:05;;;;;;;3.85;1.80;;;;;22.70;102683.00;;;;5010995;28;20205;-77
2021/09/01 01:23:32;;;;;;;6.18;1.90;;;;;22.70;102684.00;;;;5010437;28;20209;-77
2021/09/01 01:26:01;;;;;;;2.85;1.50;;;;;22.70;102680.00;;;;5011185;28;20205;-78
2021/09/01 01:28:28;;;;;;;4.13;1.58;;;;;22.70;102684.00;;;;5010002;28;20209;-78
2021/09/01 01:30:55;;;;;;;3.78;1.88;;;;;22.60;102681.00;;;;5010659;28;20233;-78
2021/09/01 01:33:22;;;;;;;3.60;1.58;;;;;22.70;102682.00;;;;5010170;28;20201;-78
2021/09/01 01:35:50;;;;;;;3.72;1.40;;;;;22.60;102684.00;;;;5009354;28;20203;-78
2021/09/01 01:38:20;;;;;;;3.03;1.63;;;;;22.60;102682.00;;;;5010596;28;20216;-78
2021/09/01 01:40:48;;;;;;;3.97;1.83;;;;;22.60;102679.00;;;;5010319;28;20196;-78
2021/09/01 01:43:16;;;;;;;5.13;1.85;;;;;22.60;102683.00;;;;5010232;28;20193;-78
2021/09/01 01:45:46;;;;;;;4.18;1.48;;;;;22.60;102679.00;;;;5010091;28;20768;-78
2021/09/01 01:48:15;;;;;;;4.95;1.90;;;;;22.60;102687.00;;;;5010399;28;20197;-78
2021/09/01 01:50:44;;;;;;;6.57;2.00;;;;;22.60;102682.00;;;;5009131;28;20235;-78
2021/09/01 01:53:11;;;;;;;4.18;1.30;;;;;22.60;102684.00;;;;5010215;28;20570;-78
2021/09/01 01:55:39;;;;;;;4.45;1.65;;;;;22.60;102684.00;;;;5010058;28;20206;-78
2021/09/01 01:58:06;;;;;;;5.47;1.80;;;;;22.60;102679.00;;;;5009926;28;20208;-78
2021/09/01 02:00:35;;;;;;;4.78;2.10;;;;;22.60;102690.00;;;;5010205;28;20208;-78
2021/09/01 02:03:03;;;;;;;4.13;1.77;;;;;22.60;102676.00;;;;5009872;28;20201;-78
2021/09/01 02:05:30;;;;;;;4.22;2.33;;;;;22.60;102687.00;;;;5010202;28;20204;-78
2021/09/01 02:07:57;;;;;;;4.72;1.85;;;;;22.50;102686.00;;;;5010329;28;20615;-78
2021/09/01 02:10:25;;;;;;;6.13;1.58;;;;;22.50;102686.00;;;;5009965;28;20228;-78
2021/09/01 02:12:52;;;;;;;10.20;2.13;;;;;22.50;102687.00;;;;5009834;28;20212;-78
2021/09/01 02:15:19;;;;;;;4.53;1.92;;;;;22.50;102685.00;;;;5009943;28;20208;-78
2021/09/01 02:17:49;;;;;;;5.78;1.77;;;;;22.50;102688.00;;;;5008722;28;20232;-78
2021/09/01 02:20:17;;;;;;;4.80;1.80;;;;;22.50;102686.00;;;;5009787;28;20217;-78
2021/09/01 02:22:47;;;;;;;5.15;1.80;;;;;22.50;102688.00;;;;5009462;28;20209;-78
2021/09/01 02:25:15;;;;;;;4.70;1.60;;;;;22.50;102678.00;;;;5010040;28;20189;-78
2021/09/01 02:27:42;;;;;;;2.92;1.67;;;;;22.50;102676.00;;;;5009203;28;20201;-78
2021/09/01 02:30:12;;;;;;;2.95;1.50;;;;;22.50;102674.00;;;;5009865;28;20590;-77
2021/09/01 02:32:39;;;;;;;4.03;2.13;;;;;22.50;102674.00;;;;5009806;28;20196;-77
2021/09/01 02:35:09;;;;;;;7.63;1.63;;;;;22.40;102675.00;;;;5009508;28;20201;-77
2021/09/01 02:37:36;;;;;;;7.28;3.10;;;;;22.40;102673.00;;;;5009327;28;20208;-77
2021/09/01 02:40:04;;;;;;;3.97;1.90;;;;;22.40;102682.00;;;;5009021;28;20209;-77
2021/09/01 02:42:31;;;;;;;5.05;1.67;;;;;22.40;102666.00;;;;5009942;28;20304;-77
2021/09/01 02:45:00;;;;;;;4.85;2.35;;;;;22.40;102666.00;;;;5009104;28;20212;-77
2021/09/01 02:47:27;;;;;;;3.90;1.67;;;;;22.40;102672.00;;;;5007490;28;20201;-77
2021/09/01 02:49:55;;;;;;;5.00;1.45;;;;;22.40;102672.00;;;;5009306;28;20196;-78
2021/09/01 02:52:23;;;;;;;5.03;1.65;;;;;22.40;102666.00;;;;5009364;28;20229;-78
2021/09/01 02:54:50;;;;;;;5.07;2.17;;;;;22.40;102674.00;;;;5008746;28;20611;-78
2021/09/01 02:57:18;;;;;;;3.75;1.63;;;;;22.40;102675.00;;;;5009043;28;20212;-78
2021/09/01 02:59:45;;;;;;;3.28;1.95;;;;;22.40;102672.00;;;;5009135;28;20621;-78
2021/09/01 03:02:12;;;;;;;2.55;1.92;;;;;22.40;102678.00;;;;5009111;28;20220;-78
2021/09/01 03:04:39;;;;;;;3.88;1.70;;;;;22.30;102684.00;;;;5008290;28;20697;-78
2021/09/01 03:07:06;;;;;;;3.50;1.67;;;;;22.30;102677.00;;;;5009164;28;20236;-78
2021/09/01 03:09:35;;;;;;;5.25;2.00;;;;;22.30;102682.00;;;;5009281;28;20193;-78
2021/09/01 03:12:02;;;;;;;6.00;2.40;;;;;22.30;102678.00;;;;5009416;28;20217;-78
2021/09/01 03:14:30;;;;;;;7.18;2.45;;;;;22.30;102674.00;;;;5008110;28;20227;-78
2021/09/01 03:16:57;;;;;;;3.92;1.90;;;;;22.30;102669.00;;;;5008190;28;20185;-78
2021/09/01 03:19:24;;;;;;;9.68;2.35;;;;;22.30;102671.00;;;;5008003;28;20629;-78
2021/09/01 03:21:52;;;;;;;5.45;2.03;;;;;22.30;102678.00;;;;5008971;28;20201;-77
2021/09/01 03:24:19;;;;;;;3.92;2.00;;;;;22.30;102673.00;;;;5008665;28;20197;-78
2021/09/01 03:26:48;;;;;;;5.88;1.67;;;;;22.30;102675.00;;;;5008051;28;20207;-78
2021/09/01 03:29:15;;;;;;;3.90;1.77;;;;;22.30;102670.00;;;;5004175;28;20205;-77
2021/09/01 03:31:42;;;;;;;5.05;2.13;;;;;22.30;102675.00;;;;5007782;28;20239;-77
2021/09/01 03:34:10;;;;;;;5.15;1.80;;;;;22.30;102677.00;;;;5008506;28;20197;-77
2021/09/01 03:36:37;;;;;;;7.00;2.00;;;;;22.30;102674.00;;;;5008773;28;20204;-77
2021/09/01 03:39:04;;;;;;;4.82;2.15;;;;;22.30;102672.00;;;;5008509;28;20412;-77
2021/09/01 03:41:32;;;;;;;5.32;1.98;;;;;22.30;102676.00;;;;5008790;28;20201;-77
2021/09/01 03:44:00;;;;;;;4.35;1.55;;;;;22.20;102673.00;;;;5007887;28;20208;-77
2021/09/01 03:46:27;;;;;;;6.65;2.40;;;;;22.20;102672.00;;;;5008246;28;20212;-77
2021/09/01 03:48:55;;;;;;;4.32;2.03;;;;;22.20;102672.00;;;;5007836;28;20748;-77
2021/09/01 03:51:22;;;;;;;3.28;1.98;;;;;22.20;102672.00;;;;5008658;28;20225;-78
2021/09/01 03:53:49;;;;;;;4.00;1.70;;;;;22.20;102673.00;;;;5008628;28;20196;-77
2021/09/01 03:56:16;;;;;;;5.63;1.65;;;;;22.20;102670.00;;;;5008284;28;20251;-77
2021/09/01 03:58:44;;;;;;;3.50;1.77;;;;;22.20;102674.00;;;;5010529;28;20205;-77
2021/09/01 04:01:12;;;;;;;5.60;1.90;;;;;22.20;102669.00;;;;5011680;28;20707;-77
2021/09/01 04:03:39;;;;;;;4.10;1.92;;;;;22.20;102674.00;;;;5002854;28;20207;-78
2021/09/01 04:06:07;;;;;;;5.13;1.38;;;;;22.20;102671.00;;;;5012226;28;20777;-77
2021/09/01 04:08:34;;;;;;;4.38;1.77;;;;;22.20;102672.00;;;;5012661;28;20212;-77
2021/09/01 04:11:01;;;;;;;3.63;2.13;;;;;22.20;102673.00;;;;5012036;28;20221;-76
2021/09/01 04:13:28;;;;;;;6.75;2.38;;;;;22.10;102678.00;;;;5012604;28;20577;-77
2021/09/01 04:15:55;;;;;;;5.93;1.98;;;;;22.10;102682.00;;;;5009833;28;20208;-77
2021/09/01 04:18:24;;;;;;;5.97;1.98;;;;;22.10;102683.00;;;;5011379;28;20239;-78
2021/09/01 04:20:51;;;;;;;3.67;1.83;;;;;22.10;102682.00;;;;5011442;28;20205;-77
2021/09/01 04:23:19;;;;;;;3.05;1.75;;;;;22.10;102679.00;;;;5012338;28;20209;-77
2021/09/01 04:25:47;;;;;;;4.47;1.83;;;;;22.10;102687.00;;;;5011238;28;20201;-77
2021/09/01 04:28:14;;;;;;;4.97;1.63;;;;;22.10;102686.00;;;;5012198;28;20194;-78
2021/09/01 04:30:41;;;;;;;4.45;2.03;;;;;22.10;102687.00;;;;5011625;28;20201;-77
2021/09/01 04:33:08;;;;;;;3.90;2.13;;;;;22.10;102683.00;;;;5010857;28;20224;-78
2021/09/01 04:35:37;;;;;;;2.90;1.75;;;;;22.10;102680.00;;;;5010412;28;20730;-77
2021/09/01 04:38:05;;;;;;;3.78;1.67;;;;;22.10;102689.00;;;;5012027;28;20663;-77
2021/09/01 04:40:32;;;;;;;4.18;1.83;;;;;22.10;102683.00;;;;5011198;28;20666;-77
2021/09/01 04:43:00;;;;;;;7.40;2.15;;;;;22.10;102689.00;;;;5001348;28;20193;-77
2021/09/01 04:45:27;;;;;;;4.47;1.77;;;;;22.10;102677.00;;;;5011186;28;20193;-77
2021/09/01 04:47:54;;;;;;;4.88;2.30;;;;;22.10;102676.00;;;;5010840;28;20207;-77
2021/09/01 04:50:22;;;;;;;4.18;1.85;;;;;22.10;102674.00;;;;5011071;28;20208;-77
2021/09/01 04:52:51;;;;;;;4.65;1.98;;;;;22.10;102677.00;;;;5010284;28;20698;-78
2021/09/01 04:55:18;;;;;;;3.85;1.70;;;;;22.10;102689.00;;;;4992891;28;20667;-77
2021/09/01 04:57:46;;;;;;;2.58;1.60;;;;;22.10;102682.00;;;;5008799;28;20193;-77
2021/09/01 05:00:14;;;;;;;7.30;2.38;;;;;22.00;102682.00;;;;5011498;28;20209;-77
2021/09/01 05:02:41;;;;;;;3.65;2.10;;;;;22.10;102682.00;;;;5008402;28;20197;-77
2021/09/01 05:05:09;;;;;;;4.82;2.30;;;;;22.00;102680.00;;;;5007710;28;20189;-77
2021/09/01 05:07:37;;;;;;;4.60;2.08;;;;;22.10;102685.00;;;;5010233;28;20220;-76
2021/09/01 05:10:06;;;;;;;5.22;2.42;;;;;22.00;102687.00;;;;5010230;28;20212;-76
2021/09/01 05:12:34;;;;;;;6.55;2.25;;;;;22.10;102689.00;;;;5010246;28;20710;-76
2021/09/01 05:15:01;;;;;;;4.85;1.67;;;;;22.10;102685.00;;;;5010908;28;20201;-77
2021/09/01 05:17:28;;;;;;;7.25;2.50;;;;;22.10;102683.00;;;;5009252;28;20255;-77
2021/09/01 05:19:55;;;;;;;4.82;1.85;;;;;22.10;102683.00;;;;5009799;28;20662;-77
2021/09/01 05:22:24;;;;;;;4.82;2.38;;;;;22.00;102677.00;;;;5009907;28;20200;-77
2021/09/01 05:25:00;;;;;;;4.35;2.17;;;;;22.00;102679.00;;;;5009109;28;20205;-77
2021/09/01 05:27:32;;;;;;;4.97;2.42;;;;;22.00;102681.00;;;;5008576;28;20280;-76
2021/09/01 05:30:00;;;;;;;4.68;2.05;;;;;22.10;102680.00;;;;5007567;28;20571;-76
2021/09/01 05:32:29;;;;;;;2.72;1.80;;;;;22.10;102682.00;;;;5009197;28;20279;-77
2021/09/01 05:34:59;;;;;;;5.25;1.95;;;;;22.10;102692.00;;;;5010324;28;21090;-77
2021/09/01 05:37:28;;;;;;;7.40;1.90;;;;;22.10;102690.00;;;;5010100;28;20571;-78
2021/09/01 05:39:57;;;;;;;3.83;2.15;;;;;22.10;102691.00;;;;5010299;28;20225;-78
2021/09/01 05:42:26;;;;;;;4.40;1.88;;;;;22.10;102683.00;;;;5009937;28;20289;-77
2021/09/01 05:44:56;;;;;;;4.03;1.92;;;;;22.10;102687.00;;;;5008740;28;20197;-78
2021/09/01 05:47:24;;;;;;;4.60;1.88;;;;;22.10;102697.00;;;;5008201;28;20205;-79
2021/09/01 05:49:53;;;;;;;5.03;2.20;;;;;22.10;102699.00;;;;5008797;28;20201;-79
2021/09/01 05:52:21;;;;;;;3.55;1.88;;;;;22.10;102699.00;;;;5008933;28;20217;-79
2021/09/01 05:54:51;;;;;;;2.88;1.83;;;;;22.10;102706.00;;;;5009116;28;20205;-78
2021/09/01 05:57:21;;;;;;;6.45;2.35;;;;;22.10;102709.00;;;;5008341;28;20658;-78
2021/09/01 05:59:54;;;;;;;3.35;1.80;;;;;22.10;102712.00;;;;5009604;28;20205;-79
2021/09/01 06:02:26;;;;;;;7.28;2.05;;;;;22.10;102711.00;;;;5005659;28;20196;-78
2021/09/01 06:04:55;;;;;;;3.33;1.55;;;;;22.10;102713.00;;;;5007483;28;20205;-76
2021/09/01 06:07:26;;;;;;;4.43;1.67;;;;;22.10;102717.00;;;;5008983;28;20224;-76
2021/09/01 06:09:55;;;;;;;4.50;2.25;;;;;22.20;102717.00;;;;5009262;28;20768;-76
2021/09/01 06:12:23;;;;;;;4.55;2.10;;;;;22.10;102716.00;;;;5009884;28;20636;-76
2021/09/01 06:14:50;;;;;;;6.47;2.20;;;;;22.20;102717.00;;;;5008864;28;20216;-76
2021/09/01 06:17:17;;;;;;;7.05;2.20;;;;;22.20;102718.00;;;;5007773;28;20225;-76
2021/09/01 06:19:47;;;;;;;5.82;2.45;;;;;22.20;102719.00;;;;5009159;28;20232;-76
2021/09/01 06:22:15;;;;;;;4.07;1.80;;;;;22.20;102716.00;;;;5009864;28;20209;-76
2021/09/01 06:24:43;;;;;;;5.30;2.03;;;;;22.20;102721.00;;;;5008523;28;20201;-78
2021/09/01 06:27:10;;;;;;;5.32;1.98;;;;;22.20;102723.00;;;;5008285;28;20197;-78
2021/09/01 06:29:37;;;;;;;4.93;2.20;;;;;22.20;102719.00;;;;5007533;28;20189;-78
2021/09/01 06:32:05;;;;;;;5.40;2.05;;;;;22.20;102725.00;;;;5009034;28;20248;-78
2021/09/01 06:34:32;;;;;;;5.40;1.73;;;;;22.20;102725.00;;;;5008371;28;20620;-78
2021/09/01 06:37:03;;;;;;;7.28;2.47;;;;;22.20;102731.00;;;;5009741;28;20201;-78
2021/09/01 06:39:30;;;;;;;5.00;2.60;;;;;22.20;102726.00;;;;5008958;28;20200;-77
2021/09/01 06:41:57;;;;;;;5.90;1.83;;;;;22.20;102732.00;;;;5008962;28;20208;-78
2021/09/01 06:44:24;;;;;;;4.03;2.28;;;;;22.20;102731.00;;;;5009695;28;20210;-78
2021/09/01 06:46:52;;;;;;;4.35;2.13;;;;;22.20;102727.00;;;;5008813;28;20204;-78
2021/09/01 06:49:19;;;;;;;5.13;1.98;;;;;22.20;102715.00;;;;5009492;28;20215;-78
2021/09/01 06:51:46;;;;;;;4.30;2.08;;;;;22.30;102723.00;;;;5008288;28;20204;-78
2021/09/01 06:54:15;;;;;;;8.50;2.60;;;;;22.20;102731.00;;;;5008911;28;20197;-78
2021/09/01 06:56:42;;;;;;;8.48;2.08;;;;;22.30;102725.00;;;;5009294;28;20555;-77
2021/09/01 06:59:09;;;;;;;8.23;2.10;;;;;22.30;102724.00;;;;5006508;28;20212;-77
2021/09/01 07:01:36;;;;;;;5.97;2.58;;;;;22.30;102736.00;;;;5002825;28;20201;-78
2021/09/01 07:04:03;;;;;;;3.42;1.65;;;;;22.30;102732.00;;;;5009779;28;20204;-78
2021/09/01 07:06:31;;;;;;;5.47;2.35;;;;;22.40;102736.00;;;;5007680;28;20207;-78
2021/09/01 07:08:58;;;;;;;5.30;1.85;;;;;22.40;102733.00;;;;5009564;28;20200;-78
2021/09/01 07:11:26;;;;;;;6.05;2.33;;;;;22.40;102732.00;;;;5009033;28;20208;-79
2021/09/01 07:13:54;;;;;;;3.97;2.10;;;;;22.40;102741.00;;;;5009363;28;20232;-79
2021/09/01 07:16:21;;;;;;;4.13;1.98;;;;;22.50;102740.00;;;;5009532;28;20205;-79
2021/09/01 07:18:48;;;;;;;4.53;2.00;;;;;22.50;102739.00;;;;5007272;28;20698;-78
2021/09/01 07:21:16;;;;;;;5.57;2.30;;;;;22.50;102743.00;;;;5008699;28;20562;-78
2021/09/01 07:23:43;;;;;;;2.63;1.75;;;;;22.50;102738.00;;;;5008135;28;20189;-79
2021/09/01 07:26:12;;;;;;;3.08;1.63;;;;;22.60;102740.00;;;;5009161;28;20207;-78
2021/09/01 07:28:41;;;;;;;3.58;2.00;;;;;22.60;102736.00;;;;5008393;28;20209;-78
2021/09/01 07:31:09;;;;;;;3.28;2.17;;;;;22.60;102738.00;;;;5009468;28;20200;-78
2021/09/01 07:33:37;;;;;;;5.60;1.85;;;;;22.70;102742.00;;;;5006303;28;20228;-78
2021/09/01 07:36:05;;;;;;;3.45;2.00;;;;;22.70;102739.00;;;;5008335;28;20200;-78
2021/09/01 07:38:32;;;;;;;4.00;2.05;;;;;22.70;102737.00;;;;5004565;28;20200;-77
2021/09/01 07:40:59;;;;;;;4.80;2.10;;;;;22.80;102750.00;;;;5007484;28;20197;-77
2021/09/01 07:43:28;;;;;;;4.43;2.22;;;;;22.80;102751.00;;;;5007387;28;20201;-78
2021/09/01 07:45:56;;;;;;;3.50;1.73;;;;;22.80;102757.00;;;;5008845;28;20291;-78
2021/09/01 07:48:23;;;;;;;4.95;2.13;;;;;22.80;102760.00;;;;5008114;28;20203;-78
2021/09/01 07:50:51;;;;;;;3.22;1.55;;;;;22.90;102763.00;;;;5008212;28;20643;-78
2021/09/01 07:53:18;;;;;;;3.50;1.83;;;;;22.90;102767.00;;;;5008955;28;20260;-77
2021/09/01 07:55:46;;;;;;;3.85;1.17;;;;;22.90;102760.00;;;;5007584;28;20208;-77
2021/09/01 07:58:13;;;;;;;2.65;1.52;;;;;22.90;102763.00;;;;5009156;28;20223;-77
2021/09/01 08:00:41;;;;;;;4.15;1.40;;;;;22.90;102762.00;;;;5007935;28;20208;-77
2021/09/01 08:03:10;;;;;;;6.07;2.30;;;;;23.00;102772.00;;;;5008418;28;20204;-77
2021/09/01 08:05:37;;;;;;;4.70;2.08;;;;;23.00;102774.00;;;;5007160;28;20240;-77
2021/09/01 08:08:05;;;;;;;5.32;1.83;;;;;23.00;102774.00;;;;5007308;28;20228;-77
2021/09/01 08:10:32;;;;;;;5.15;1.75;;;;;23.10;102777.00;;;;5007361;28;20282;-77
2021/09/01 08:13:00;;;;;;;2.83;1.67;;;;;23.10;102782.00;;;;5007665;28;20232;-78
2021/09/01 08:15:27;;;;;;;4.68;1.70;;;;;23.10;102789.00;;;;5008051;28;20223;-78
2021/09/01 08:17:54;;;;;;;4.95;1.40;;;;;23.10;102789.00;;;;5006324;28;20231;-78
2021/09/01 08:20:23;;;;;;;3.97;1.65;;;;;23.20;102789.00;;;;5007655;28;20228;-78
2021/09/01 08:22:50;;;;;;;3.20;1.70;;;;;23.20;102795.00;;;;5006427;28;20204;-78
2021/09/01 08:25:18;;;;;;;4.13;1.58;;;;;23.20;102784.00;;;;5007536;28;20197;-79
2021/09/01 08:27:47;;;;;;;7.82;1.88;;;;;23.20;102793.00;;;;5007155;28;20212;-79
2021/09/01 08:30:16;;;;;;;2.15;1.48;;;;;23.20;102794.00;;;;5007713;28;20562;-80
2021/09/01 08:32:43;;;;;;;4.13;1.48;;;;;23.30;102793.00;;;;5006415;28;20702;-79
2021/09/01 08:35:11;;;;;;;5.40;1.67;;;;;23.30;102794.00;;;;5005906;28;20216;-79
2021/09/01 08:37:40;;;;;;;4.47;1.38;;;;;23.30;102795.00;;;;5007107;28;20201;-78
2021/09/01 08:40:09;;;;;;;2.72;1.38;;;;;23.30;102798.00;;;;5007804;28;20236;-78
2021/09/01 08:42:38;;;;;;;2.97;1.38;;;;;23.30;102794.00;;;;5006939;28;20689;-79
2021/09/01 08:45:06;;;;;;;4.00;1.48;;;;;23.30;102796.00;;;;5008953;28;20201;-80
2021/09/01 08:47:36;;;;;;;3.70;2.30;;;;;23.40;102796.00;;;;5007145;28;20201;-80
2021/09/01 08:50:04;;;;;;;4.88;1.55;;;;;23.40;102804.00;;;;5006367;28;20197;-79
2021/09/01 08:52:32;;;;;;;4.55;1.55;;;;;23.40;102802.00;;;;5010165;28;20228;-79
2021/09/01 08:55:00;;;;;;;3.72;1.55;;;;;23.40;102801.00;;;;5011058;28;20212;-80
2021/09/01 08:57:27;;;;;;;3.63;1.70;;;;;23.50;102793.00;;;;5010981;28;20201;-79
2021/09/01 08:59:55;;;;;;;3.45;1.60;;;;;23.50;102799.00;;;;5006498;28;20213;-80
2021/09/01 09:02:28;;;;;;;2.72;1.20;;;;;23.40;102794.00;;;;5006017;28;20201;-79
2021/09/01 09:04:56;;;;;;;3.30;1.40;;;;;23.50;102799.00;;;;5001572;28;20297;-80
2021/09/01 09:07:24;;;;;;;7.10;1.88;;;;;23.50;102793.00;;;;5008320;28;20197;-79
2021/09/01 09:09:52;;;;;;;2.35;1.25;;;;;23.50;102796.00;;;;5002524;28;20640;-79
2021/09/01 09:12:32;;;;;;;3.78;1.40;;;;;23.50;102806.00;;;;5005182;28;20212;-78
2021/09/01 09:14:59;;;;;;;2.35;1.48;;;;;23.60;102796.00;;;;5008734;28;20216;-79
2021/09/01 09:17:36;;;;;;;5.75;1.58;;;;;23.60;102797.00;;;;5007950;28;20240;-79
2021/09/01 09:20:06;;;;;;;3.53;1.85;;;;;23.70;102804.00;;;;5004446;28;20741;-78
2021/09/01 09:22:35;;;;;;;2.50;1.17;;;;;23.70;102808.00;;;;5009927;28;20204;-78
2021/09/01 09:25:10;;;;;;;4.28;1.52;;;;;23.70;102804.00;;;;5010439;28;20205;-78
2021/09/01 09:27:44;;;;;;;4.90;1.42;;;;;23.70;102805.00;;;;5002249;28;20200;-78
2021/09/01 09:30:36;;;;;;;3.17;1.27;;;;;23.60;102800.00;;;;5010057;28;20199;-78
2021/09/01 09:33:09;;;;;;;2.38;0.95;;;;;23.80;102806.00;;;;5002838;28;20597;-78
2021/09/01 09:35:55;;;;;;;3.30;1.73;;;;;23.70;102800.00;;;;5005773;28;20204;-79
2021/09/01 09:38:35;;;;;;;4.30;1.48;;;;;23.80;102804.00;;;;5006338;28;20194;-79
2021/09/01 09:41:05;;;;;;;2.72;1.17;;;;;23.90;102802.00;;;;5009673;28;20666;-78
2021/09/01 09:43:35;;;;;;;5.45;1.30;;;;;23.90;102809.00;;;;5010012;28;20208;-78
2021/09/01 09:46:10;;;;;;;4.60;1.65;;;;;23.90;102806.00;;;;5002528;28;20204;-79
2021/09/01 09:48:38;;;;;;;6.47;1.60;;;;;24.00;102807.00;;;;4996831;28;20263;-79
2021/09/01 09:51:08;;;;;;;3.28;1.30;;;;;24.00;102807.00;;;;4990086;28;20210;-79
2021/09/01 09:53:37;;;;;;;3.22;1.40;;;;;24.00;102802.00;;;;5010116;28;20239;-79
2021/09/01 09:56:07;;;;;;;5.10;1.40;;;;;24.10;102809.00;;;;5002613;28;20198;-79
2021/09/01 09:58:38;;;;;;;2.85;1.40;;;;;24.10;102806.00;;;;5002991;28;20201;-79
2021/09/01 10:01:07;;;;;;;3.13;1.60;;;;;24.10;102809.00;;;;5010509;28;20197;-78
2021/09/01 10:03:35;;;;;;;4.40;1.27;;;;;24.20;102811.00;;;;5009471;28;20189;-79
2021/09/01 10:06:04;;;;;;;3.65;1.08;;;;;24.30;102810.00;;;;5009370;28;20232;-78
2021/09/01 10:08:32;;;;;;;3.63;1.83;;;;;24.30;102803.00;;;;5009746;28;20451;-79
2021/09/01 10:11:01;;;;;;;5.55;1.60;;;;;24.40;102801.00;;;;5009910;28;20227;-79
2021/09/01 10:13:29;;;;;;;3.45;1.33;;;;;24.40;102796.00;;;;5008226;28;20229;-78
2021/09/01 10:16:11;;;;;;;4.03;1.20;;;;;24.40;102795.00;;;;5008120;28;20676;-78
2021/09/01 10:18:40;;;;;;;4.10;1.10;;;;;24.50;102790.00;;;;4990190;28;20241;-79
2021/09/01 10:21:08;;;;;;;4.22;1.20;;;;;24.50;102790.00;;;;4990390;28;20594;-78
2021/09/01 10:23:41;;;;;;;6.38;1.80;;;;;24.50;102795.00;;;;5003480;28;20213;-78
2021/09/01 10:26:22;;;;;;;4.05;0.93;;;;;24.40;102789.00;;;;5000225;28;20193;-78
2021/09/01 10:28:50;;;;;;;4.47;1.70;;;;;24.50;102794.00;;;;5009274;28;20686;-78
2021/09/01 10:31:27;;;;;;;5.23;2.10;;;;;24.40;102793.00;;;;5008299;28;20622;-77
2021/09/01 10:33:58;;;;;;;3.70;2.17;;;;;24.50;102794.00;;;;5007580;28;20499;-77
2021/09/01 10:36:39;;;;;;;2.17;1.10;;;;;24.40;102792.00;;;;5006866;28;20193;-76
2021/09/01 10:39:46;;;;;;;3.78;1.27;;;;;24.40;102792.00;;;;5007211;28;20548;-76
2021/09/01 10:42:33;;;;;;;3.55;1.58;;;;;24.30;102790.00;;;;5000287;28;20335;-76
2021/09/01 10:45:01;;;;;;;2.45;1.25;;;;;24.40;102794.00;;;;5006629;28;20260;-76
2021/09/01 10:48:11;;;;;;;2.40;1.40;;;;;24.30;102788.00;;;;5007415;28;20223;-78
2021/09/01 10:50:40;;;;;;;6.13;1.42;;;;;24.40;102787.00;;;;5004948;28;20282;-78
2021/09/01 10:53:17;;;;;;;2.92;1.42;;;;;24.30;102775.00;;;;5009159;28;20225;-79
2021/09/01 10:56:04;;;;;;;2.17;1.17;;;;;24.30;102784.00;;;;5008394;28;20207;-78
2021/09/01 10:58:34;;;;;;;3.10;1.23;;;;;24.40;102779.00;;;;5008440;28;20201;-78
2021/09/01 11:01:08;;;;;;;2.60;1.20;;;;;24.40;102776.00;;;;5007929;28;20697;-78
2021/09/01 11:03:39;;;;;;;3.67;1.30;;;;;24.40;102769.00;;;;5009220;28;20216;-77
2021/09/01 11:06:24;;;;;;;4.05;1.50;;;;;24.40;102765.00;;;;5007156;28;21002;-77
2021/09/01 11:09:11;;;;;;;2.40;1.33;;;;;24.40;102768.00;;;;5008230;28;20244;-77
2021/09/01 11:11:50;;;;;;;3.78;1.58;;;;;24.50;102771.00;;;;5003561;28;20230;-78
2021/09/01 11:14:31;;;;;;;5.93;1.30;;;;;24.50;102769.00;;;;5006615;28;20247;-78
2021/09/01 11:16:59;;;;;;;2.88;1.08;;;;;24.60;102768.00;;;;5006435;28;20193;-78
2021/09/01 11:19:28;;;;;;;4.18;1.38;;;;;24.60;102765.00;;;;5006060;28;20605;-77
2021/09/01 11:21:58;;;;;;;2.58;1.10;;;;;24.70;102770.00;;;;5004953;28;20248;-78
2021/09/01 11:24:26;;;;;;;2.75;0.98;;;;;24.70;102774.00;;;;5005280;28;20209;-77
2021/09/01 11:26:55;;;;;;;2.30;1.20;;;;;24.70;102766.00;;;;5006898;28;20232;-77
2021/09/01 11:29:33;;;;;;;4.05;1.52;;;;;24.60;102766.00;;;;5007130;28;20193;-77
2021/09/01 11:32:01;;;;;;;3.63;1.38;;;;;24.70;102764.00;;;;5004820;28;20215;-77
2021/09/01 11:34:30;;;;;;;3.90;1.15;;;;;24.80;102761.00;;;;5007929;28;20228;-78
2021/09/01 11:36:57;;;;;;;3.47;1.25;;;;;24.80;102764.00;;;;5008775;28;20200;-79
2021/09/01 11:39:25;;;;;;;3.72;1.25;;;;;24.80;102763.00;;;;5007981;28;20212;-81
2021/09/01 11:42:00;;;;;;;3.92;1.00;;;;;24.80;102761.00;;;;5006940;28;20193;-79
2021/09/01 11:44:27;;;;;;;3.38;1.30;;;;;24.90;102763.00;;;;5006025;28;20573;-79
2021/09/01 11:46:55;;;;;;;2.47;1.20;;;;;25.00;102767.00;;;;5007584;28;20193;-80
2021/09/01 11:49:22;;;;;;;1.80;0.70;;;;;25.10;102766.00;;;;4989749;28;20209;-79
2021/09/01 11:51:51;;;;;;;3.28;0.82;;;;;25.10;102773.00;;;;4999566;28;20207;-80
2021/09/01 11:54:20;;;;;;;2.40;1.00;;;;;25.10;102774.00;;;;5007775;28;20252;-79
2021/09/01 11:56:47;;;;;;;2.97;1.13;;;;;25.20;102769.00;;;;5007908;28;20566;-80
2021/09/01 11:59:15;;;;;;;2.35;1.02;;;;;25.10;102773.00;;;;5008672;28;20196;-80
2021/09/01 12:01:48;;;;;;;1.83;1.00;;;;;25.10;102772.00;;;;5006994;28;20223;-80
2021/09/01 12:04:17;;;;;;;2.97;0.90;;;;;25.10;102783.00;;;;5007687;28;20237;-79
2021/09/01 12:06:46;;;;;;;2.25;0.88;;;;;25.00;102776.00;;;;5007254;28;20231;-78
2021/09/01 12:09:15;;;;;;;3.35;0.82;;;;;25.00;102784.00;;;;5007450;28;20193;-78
2021/09/01 12:11:51;;;;;;;1.58;0.77;;;;;24.90;102783.00;;;;5007739;28;20304;-78
2021/09/01 12:14:22;;;;;;;1.67;0.80;;;;;24.90;102776.00;;;;4990310;28;20229;-77
2021/09/01 12:16:50;;;;;;;3.08;1.00;;;;;24.90;102785.00;;;;5008150;28;20228;-78
2021/09/01 12:19:19;;;;;;;3.78;1.38;;;;;24.90;102773.00;;;;5010196;28;20233;-79